sensor_id;sensor_type;location;lat;lon;timestamp;temperature;humidity
20102;DHT22;10210;52.284;9.892;2022-09-24T00:03:39;18.10;99.90
20102;DHT22;10210;52.284;9.892;2022-09-24T00:06:07;18.10;99.90
20102;DHT22;10210;52.284;9.892;2022-09-24T00:08:34;18.10;99.90
20102;DHT22;10210;52.284;9.892;2022-09-24T00:11:02;18.10;99.90
20102;DHT22;10210;52.284;9.892;2022-09-24T00:13:30;18.10;99.90
20102;DHT22;10210;52.284;9.892;2022-09-24T00:16:01;18.10;99.90
20102;DHT22;10210;52.284;9.892;2022-09-24T00:18:29;18.10;99.90
20102;DHT22;10210;52.284;9.892;2022-09-24T00:20:55;18.10;99.90
20102;DHT22;10210;52.284;9.892;2022-09-24T00:23:21;18.10;99.90
20102;DHT22;10210;52.284;9.892;2022-09-24T00:25:48;18.10;99.90
20102;DHT22;10210;52.284;9.892;2022-09-24T00:28:33;18.00;99.90
20102;DHT22;10210;52.284;9.892;2022-09-24T00:31:03;18.00;99.90
20102;DHT22;10210;52.284;9.892;2022-09-24T00:33:33;18.10;99.90
20102;DHT22;10210;52.284;9.892;2022-09-24T00:36:00;18.00;99.90
20102;DHT22;10210;52.284;9.892;2022-09-24T00:38:29;18.00;99.90
20102;DHT22;10210;52.284;9.892;2022-09-24T00:40:58;18.00;99.90
20102;DHT22;10210;52.284;9.892;2022-09-24T00:43:30;18.00;99.90
20102;DHT22;10210;52.284;9.892;2022-09-24T00:49:17;17.90;99.90
20102;DHT22;10210;52.284;9.892;2022-09-24T00:51:48;17.90;99.90
20102;DHT22;10210;52.284;9.892;2022-09-24T00:54:24;17.90;99.90
20102;DHT22;10210;52.284;9.892;2022-09-24T00:56:53;17.90;99.90
20102;DHT22;10210;52.284;9.892;2022-09-24T00:59:23;17.90;99.90
20102;DHT22;10210;52.284;9.892;2022-09-24T01:01:50;17.80;99.90
20102;DHT22;10210;52.284;9.892;2022-09-24T01:04:18;17.80;99.90
20102;DHT22;10210;52.284;9.892;2022-09-24T01:06:49;17.80;99.90
20102;DHT22;10210;52.284;9.892;2022-09-24T01:09:20;17.80;99.90
20102;DHT22;10210;52.284;9.892;2022-09-24T01:14:46;17.80;99.90
20102;DHT22;10210;52.284;9.892;2022-09-24T01:27:03;17.70;99.90
20102;DHT22;10210;52.284;9.892;2022-09-24T01:30:16;17.70;99.90
20102;DHT22;10210;52.284;9.892;2022-09-24T01:35:18;17.60;99.90
20102;DHT22;10210;52.284;9.892;2022-09-24T01:38:08;17.60;99.90
20102;DHT22;10210;52.284;9.892;2022-09-24T01:40:39;17.60;99.90
20102;DHT22;10210;52.284;9.892;2022-09-24T01:43:08;17.60;99.90
20102;DHT22;10210;52.284;9.892;2022-09-24T01:45:36;17.60;99.90
20102;DHT22;10210;52.284;9.892;2022-09-24T01:48:04;17.50;99.90
20102;DHT22;10210;52.284;9.892;2022-09-24T01:50:42;17.50;99.90
20102;DHT22;10210;52.284;9.892;2022-09-24T01:53:15;17.50;99.90
20102;DHT22;10210;52.284;9.892;2022-09-24T01:55:48;17.50;99.90
20102;DHT22;10210;52.284;9.892;2022-09-24T01:58:28;17.50;99.90
20102;DHT22;10210;52.284;9.892;2022-09-24T02:01:14;17.50;99.90
20102;DHT22;10210;52.284;9.892;2022-09-24T02:03:50;17.50;99.90
20102;DHT22;10210;52.284;9.892;2022-09-24T02:06:35;17.60;99.90
20102;DHT22;10210;52.284;9.892;2022-09-24T02:09:04;17.60;99.90
20102;DHT22;10210;52.284;9.892;2022-09-24T02:11:32;17.50;99.90
20102;DHT22;10210;52.284;9.892;2022-09-24T02:14:07;17.60;99.90
20102;DHT22;10210;52.284;9.892;2022-09-24T02:16:45;17.60;99.90
20102;DHT22;10210;52.284;9.892;2022-09-24T02:19:18;17.60;99.90
20102;DHT22;10210;52.284;9.892;2022-09-24T02:21:52;17.60;99.90
20102;DHT22;10210;52.284;9.892;2022-09-24T02:24:21;17.60;99.90
20102;DHT22;10210;52.284;9.892;2022-09-24T02:26:53;17.60;99.90
20102;DHT22;10210;52.284;9.892;2022-09-24T02:29:19;17.60;99.90
20102;DHT22;10210;52.284;9.892;2022-09-24T02:31:47;17.60;99.90
20102;DHT22;10210;52.284;9.892;2022-09-24T02:34:33;17.50;99.90
20102;DHT22;10210;52.284;9.892;2022-09-24T02:37:10;17.50;99.90
20102;DHT22;10210;52.284;9.892;2022-09-24T02:39:38;17.50;99.90
20102;DHT22;10210;52.284;9.892;2022-09-24T02:42:05;17.50;99.90
20102;DHT22;10210;52.284;9.892;2022-09-24T02:44:34;17.50;99.90
20102;DHT22;10210;52.284;9.892;2022-09-24T02:47:03;17.50;99.90
20102;DHT22;10210;52.284;9.892;2022-09-24T02:49:29;17.50;99.90
20102;DHT22;10210;52.284;9.892;2022-09-24T02:51:54;17.50;99.90
20102;DHT22;10210;52.284;9.892;2022-09-24T02:54:21;17.50;99.90
20102;DHT22;10210;52.284;9.892;2022-09-24T02:56:49;17.40;99.90
20102;DHT22;10210;52.284;9.892;2022-09-24T02:59:16;17.40;99.90
20102;DHT22;10210;52.284;9.892;2022-09-24T03:01:42;17.40;99.90
20102;DHT22;10210;52.284;9.892;2022-09-24T03:04:07;17.50;99.90
20102;DHT22;10210;52.284;9.892;2022-09-24T03:06:33;17.40;99.90
20102;DHT22;10210;52.284;9.892;2022-09-24T03:08:59;17.50;99.90
20102;DHT22;10210;52.284;9.892;2022-09-24T03:11:27;17.40;99.90
20102;DHT22;10210;52.284;9.892;2022-09-24T03:13:55;17.50;99.90
20102;DHT22;10210;52.284;9.892;2022-09-24T03:16:23;17.40;99.90
20102;DHT22;10210;52.284;9.892;2022-09-24T03:18:49;17.40;99.90
20102;DHT22;10210;52.284;9.892;2022-09-24T03:21:17;17.40;99.90
20102;DHT22;10210;52.284;9.892;2022-09-24T03:23:44;17.40;99.90
20102;DHT22;10210;52.284;9.892;2022-09-24T03:26:10;17.30;99.90
20102;DHT22;10210;52.284;9.892;2022-09-24T03:28:37;17.30;99.90
20102;DHT22;10210;52.284;9.892;2022-09-24T03:31:03;17.30;99.90
20102;DHT22;10210;52.284;9.892;2022-09-24T03:33:32;17.30;99.90
20102;DHT22;10210;52.284;9.892;2022-09-24T03:36:18;17.30;99.90
20102;DHT22;10210;52.284;9.892;2022-09-24T03:38:47;17.20;99.90
20102;DHT22;10210;52.284;9.892;2022-09-24T03:41:15;17.20;99.90
20102;DHT22;10210;52.284;9.892;2022-09-24T03:43:42;17.20;99.90
20102;DHT22;10210;52.284;9.892;2022-09-24T03:46:08;17.20;99.90
20102;DHT22;10210;52.284;9.892;2022-09-24T03:48:37;17.10;99.90
20102;DHT22;10210;52.284;9.892;2022-09-24T03:51:06;17.10;99.90
20102;DHT22;10210;52.284;9.892;2022-09-24T03:53:36;17.10;99.90
20102;DHT22;10210;52.284;9.892;2022-09-24T03:56:03;17.10;99.90
20102;DHT22;10210;52.284;9.892;2022-09-24T03:58:31;17.10;99.90
20102;DHT22;10210;52.284;9.892;2022-09-24T04:01:00;17.10;99.90
20102;DHT22;10210;52.284;9.892;2022-09-24T04:03:26;17.10;99.90
20102;DHT22;10210;52.284;9.892;2022-09-24T04:05:52;17.10;99.90
20102;DHT22;10210;52.284;9.892;2022-09-24T04:08:21;17.10;99.90
20102;DHT22;10210;52.284;9.892;2022-09-24T04:10:49;17.10;99.90
20102;DHT22;10210;52.284;9.892;2022-09-24T04:13:16;17.10;99.90
20102;DHT22;10210;52.284;9.892;2022-09-24T04:15:43;17.10;99.90
20102;DHT22;10210;52.284;9.892;2022-09-24T04:18:09;17.10;99.90
20102;DHT22;10210;52.284;9.892;2022-09-24T04:20:35;17.00;99.90
20102;DHT22;10210;52.284;9.892;2022-09-24T04:23:02;17.00;99.90
20102;DHT22;10210;52.284;9.892;2022-09-24T04:25:30;17.00;99.90
20102;DHT22;10210;52.284;9.892;2022-09-24T04:27:58;17.00;99.90
20102;DHT22;10210;52.284;9.892;2022-09-24T04:30:27;17.00;99.90
20102;DHT22;10210;52.284;9.892;2022-09-24T04:32:54;17.00;99.90
20102;DHT22;10210;52.284;9.892;2022-09-24T04:35:23;17.00;99.90
20102;DHT22;10210;52.284;9.892;2022-09-24T04:37:49;16.90;99.90
20102;DHT22;10210;52.284;9.892;2022-09-24T04:40:15;17.00;99.90
20102;DHT22;10210;52.284;9.892;2022-09-24T04:42:42;16.90;99.90
20102;DHT22;10210;52.284;9.892;2022-09-24T04:45:11;16.90;99.90
20102;DHT22;10210;52.284;9.892;2022-09-24T04:47:39;16.90;99.90
20102;DHT22;10210;52.284;9.892;2022-09-24T04:50:06;16.90;99.90
20102;DHT22;10210;52.284;9.892;2022-09-24T04:52:33;16.80;99.90
20102;DHT22;10210;52.284;9.892;2022-09-24T04:55:00;16.80;99.90
20102;DHT22;10210;52.284;9.892;2022-09-24T04:57:27;16.80;99.90
20102;DHT22;10210;52.284;9.892;2022-09-24T04:59:54;16.80;99.90
20102;DHT22;10210;52.284;9.892;2022-09-24T05:02:20;16.80;99.90
20102;DHT22;10210;52.284;9.892;2022-09-24T05:04:46;16.80;99.90
20102;DHT22;10210;52.284;9.892;2022-09-24T05:07:12;16.70;99.90
20102;DHT22;10210;52.284;9.892;2022-09-24T05:09:37;16.70;99.90
20102;DHT22;10210;52.284;9.892;2022-09-24T05:12:04;16.70;99.90
20102;DHT22;10210;52.284;9.892;2022-09-24T05:14:29;16.70;99.90
20102;DHT22;10210;52.284;9.892;2022-09-24T05:16:56;16.70;99.90
20102;DHT22;10210;52.284;9.892;2022-09-24T05:19:23;16.60;99.90
20102;DHT22;10210;52.284;9.892;2022-09-24T05:21:49;16.60;99.90
20102;DHT22;10210;52.284;9.892;2022-09-24T05:24:14;16.60;99.90
20102;DHT22;10210;52.284;9.892;2022-09-24T05:26:40;16.60;99.90
20102;DHT22;10210;52.284;9.892;2022-09-24T05:29:24;16.60;99.90
20102;DHT22;10210;52.284;9.892;2022-09-24T05:31:56;16.60;99.90
20102;DHT22;10210;52.284;9.892;2022-09-24T05:34:28;16.60;99.90
20102;DHT22;10210;52.284;9.892;2022-09-24T05:36:54;16.60;99.90
20102;DHT22;10210;52.284;9.892;2022-09-24T05:39:20;16.60;99.90
20102;DHT22;10210;52.284;9.892;2022-09-24T05:41:45;16.60;99.90
20102;DHT22;10210;52.284;9.892;2022-09-24T05:44:11;16.60;99.90
20102;DHT22;10210;52.284;9.892;2022-09-24T05:46:37;16.60;99.90
20102;DHT22;10210;52.284;9.892;2022-09-24T05:49:03;16.60;99.90
20102;DHT22;10210;52.284;9.892;2022-09-24T05:51:28;16.60;99.90
20102;DHT22;10210;52.284;9.892;2022-09-24T05:53:54;16.50;99.90
20102;DHT22;10210;52.284;9.892;2022-09-24T05:56:20;16.50;99.90
20102;DHT22;10210;52.284;9.892;2022-09-24T05:58:49;16.50;99.90
20102;DHT22;10210;52.284;9.892;2022-09-24T06:01:15;16.50;99.90
20102;DHT22;10210;52.284;9.892;2022-09-24T06:03:41;16.50;99.90
20102;DHT22;10210;52.284;9.892;2022-09-24T06:06:07;16.50;99.90
20102;DHT22;10210;52.284;9.892;2022-09-24T06:08:32;16.50;99.90
20102;DHT22;10210;52.284;9.892;2022-09-24T06:11:04;16.50;99.90
20102;DHT22;10210;52.284;9.892;2022-09-24T06:13:31;16.40;99.90
20102;DHT22;10210;52.284;9.892;2022-09-24T06:16:03;16.50;99.90
20102;DHT22;10210;52.284;9.892;2022-09-24T06:18:35;16.50;99.90
20102;DHT22;10210;52.284;9.892;2022-09-24T06:21:12;16.50;99.90
20102;DHT22;10210;52.284;9.892;2022-09-24T06:23:39;16.50;99.90
20102;DHT22;10210;52.284;9.892;2022-09-24T06:26:08;16.50;99.90
20102;DHT22;10210;52.284;9.892;2022-09-24T06:28:36;16.50;99.90
20102;DHT22;10210;52.284;9.892;2022-09-24T06:31:03;16.50;99.90
20102;DHT22;10210;52.284;9.892;2022-09-24T06:33:30;16.60;99.90
20102;DHT22;10210;52.284;9.892;2022-09-24T06:35:59;16.60;99.90
20102;DHT22;10210;52.284;9.892;2022-09-24T06:38:26;16.60;99.90
20102;DHT22;10210;52.284;9.892;2022-09-24T06:40:57;16.70;99.90
20102;DHT22;10210;52.284;9.892;2022-09-24T06:43:25;16.70;99.90
20102;DHT22;10210;52.284;9.892;2022-09-24T06:45:57;16.70;99.90
20102;DHT22;10210;52.284;9.892;2022-09-24T06:48:24;16.80;99.90
20102;DHT22;10210;52.284;9.892;2022-09-24T06:50:51;16.80;99.90
20102;DHT22;10210;52.284;9.892;2022-09-24T06:53:17;16.80;99.90
20102;DHT22;10210;52.284;9.892;2022-09-24T06:55:43;16.90;99.90
20102;DHT22;10210;52.284;9.892;2022-09-24T06:58:15;16.90;99.90
20102;DHT22;10210;52.284;9.892;2022-09-24T07:00:50;17.00;99.90
20102;DHT22;10210;52.284;9.892;2022-09-24T07:03:17;17.00;99.90
20102;DHT22;10210;52.284;9.892;2022-09-24T07:05:42;17.00;99.90
20102;DHT22;10210;52.284;9.892;2022-09-24T07:08:08;17.10;99.90
20102;DHT22;10210;52.284;9.892;2022-09-24T07:10:34;17.20;99.90
20102;DHT22;10210;52.284;9.892;2022-09-24T07:13:00;17.20;99.90
20102;DHT22;10210;52.284;9.892;2022-09-24T07:15:25;17.30;99.90
20102;DHT22;10210;52.284;9.892;2022-09-24T07:17:55;17.40;99.90
20102;DHT22;10210;52.284;9.892;2022-09-24T07:20:21;17.50;99.90
20102;DHT22;10210;52.284;9.892;2022-09-24T07:22:49;17.50;99.90
20102;DHT22;10210;52.284;9.892;2022-09-24T07:25:14;17.60;99.90
20102;DHT22;10210;52.284;9.892;2022-09-24T07:27:40;17.70;99.90
20102;DHT22;10210;52.284;9.892;2022-09-24T07:30:07;17.80;99.90
20102;DHT22;10210;52.284;9.892;2022-09-24T07:32:34;17.80;99.90
20102;DHT22;10210;52.284;9.892;2022-09-24T07:35:00;17.80;99.90
20102;DHT22;10210;52.284;9.892;2022-09-24T07:37:26;17.90;99.90
20102;DHT22;10210;52.284;9.892;2022-09-24T07:39:52;17.90;99.90
20102;DHT22;10210;52.284;9.892;2022-09-24T07:42:18;17.90;99.90
20102;DHT22;10210;52.284;9.892;2022-09-24T07:44:44;17.90;99.90
20102;DHT22;10210;52.284;9.892;2022-09-24T07:47:10;17.90;99.90
20102;DHT22;10210;52.284;9.892;2022-09-24T07:49:35;18.00;99.90
20102;DHT22;10210;52.284;9.892;2022-09-24T07:52:03;18.00;99.90
20102;DHT22;10210;52.284;9.892;2022-09-24T07:54:29;18.00;99.90
20102;DHT22;10210;52.284;9.892;2022-09-24T07:56:55;18.10;99.90
20102;DHT22;10210;52.284;9.892;2022-09-24T07:59:21;18.20;99.90
20102;DHT22;10210;52.284;9.892;2022-09-24T08:01:47;18.20;99.90
20102;DHT22;10210;52.284;9.892;2022-09-24T08:04:13;18.30;99.90
20102;DHT22;10210;52.284;9.892;2022-09-24T08:06:39;18.40;99.90
20102;DHT22;10210;52.284;9.892;2022-09-24T08:09:04;18.50;99.90
20102;DHT22;10210;52.284;9.892;2022-09-24T08:11:31;18.60;99.90
20102;DHT22;10210;52.284;9.892;2022-09-24T08:13:58;18.60;99.90
20102;DHT22;10210;52.284;9.892;2022-09-24T08:16:24;18.70;99.90
20102;DHT22;10210;52.284;9.892;2022-09-24T08:18:52;18.80;99.90
20102;DHT22;10210;52.284;9.892;2022-09-24T08:21:18;18.80;99.90
20102;DHT22;10210;52.284;9.892;2022-09-24T08:23:45;18.80;99.90
20102;DHT22;10210;52.284;9.892;2022-09-24T08:26:11;18.90;99.90
20102;DHT22;10210;52.284;9.892;2022-09-24T08:28:38;18.80;99.90
20102;DHT22;10210;52.284;9.892;2022-09-24T08:31:07;18.80;99.90
20102;DHT22;10210;52.284;9.892;2022-09-24T08:33:36;18.90;99.90
20102;DHT22;10210;52.284;9.892;2022-09-24T08:36:05;18.90;99.90
20102;DHT22;10210;52.284;9.892;2022-09-24T08:38:33;18.90;99.90
20102;DHT22;10210;52.284;9.892;2022-09-24T08:46:18;19.00;99.90
20102;DHT22;10210;52.284;9.892;2022-09-24T08:49:11;19.00;99.90
20102;DHT22;10210;52.284;9.892;2022-09-24T08:51:56;19.10;99.90
20102;DHT22;10210;52.284;9.892;2022-09-24T08:54:44;19.10;99.90
20102;DHT22;10210;52.284;9.892;2022-09-24T08:57:13;19.10;99.90
20102;DHT22;10210;52.284;9.892;2022-09-24T08:59:45;19.10;99.90
20102;DHT22;10210;52.284;9.892;2022-09-24T09:08:13;19.10;99.90
20102;DHT22;10210;52.284;9.892;2022-09-24T09:10:46;19.10;99.90
20102;DHT22;10210;52.284;9.892;2022-09-24T09:13:29;19.00;99.90
20102;DHT22;10210;52.284;9.892;2022-09-24T09:16:13;19.00;99.90
20102;DHT22;10210;52.284;9.892;2022-09-24T09:18:48;19.00;99.90
20102;DHT22;10210;52.284;9.892;2022-09-24T09:23:53;19.00;99.90
20102;DHT22;10210;52.284;9.892;2022-09-24T09:26:21;19.00;99.90
20102;DHT22;10210;52.284;9.892;2022-09-24T09:28:48;19.00;99.90
20102;DHT22;10210;52.284;9.892;2022-09-24T09:31:29;19.00;99.90
20102;DHT22;10210;52.284;9.892;2022-09-24T09:42:42;19.00;99.90
20102;DHT22;10210;52.284;9.892;2022-09-24T09:45:28;19.00;99.90
20102;DHT22;10210;52.284;9.892;2022-09-24T09:47:57;19.00;99.90
20102;DHT22;10210;52.284;9.892;2022-09-24T09:50:37;19.00;99.90
20102;DHT22;10210;52.284;9.892;2022-09-24T09:53:17;19.00;99.90
20102;DHT22;10210;52.284;9.892;2022-09-24T09:56:05;19.00;99.90
20102;DHT22;10210;52.284;9.892;2022-09-24T09:58:43;19.00;99.90
20102;DHT22;10210;52.284;9.892;2022-09-24T10:01:14;19.10;99.90
20102;DHT22;10210;52.284;9.892;2022-09-24T10:06:13;19.00;99.90
20102;DHT22;10210;52.284;9.892;2022-09-24T10:08:51;19.10;99.90
20102;DHT22;10210;52.284;9.892;2022-09-24T10:11:17;19.10;99.90
20102;DHT22;10210;52.284;9.892;2022-09-24T10:13:44;19.10;99.90
20102;DHT22;10210;52.284;9.892;2022-09-24T10:16:12;19.10;99.90
20102;DHT22;10210;52.284;9.892;2022-09-24T10:18:49;19.10;99.90
20102;DHT22;10210;52.284;9.892;2022-09-24T10:21:33;19.20;99.90
20102;DHT22;10210;52.284;9.892;2022-09-24T10:24:02;19.20;99.90
20102;DHT22;10210;52.284;9.892;2022-09-24T10:26:42;19.20;99.90
20102;DHT22;10210;52.284;9.892;2022-09-24T10:29:13;19.30;99.90
20102;DHT22;10210;52.284;9.892;2022-09-24T10:32:02;19.30;99.90
20102;DHT22;10210;52.284;9.892;2022-09-24T10:34:29;19.30;99.90
20102;DHT22;10210;52.284;9.892;2022-09-24T10:37:01;19.40;99.90
20102;DHT22;10210;52.284;9.892;2022-09-24T10:39:29;19.30;99.90
20102;DHT22;10210;52.284;9.892;2022-09-24T10:41:56;19.40;99.90
20102;DHT22;10210;52.284;9.892;2022-09-24T10:44:29;19.40;99.90
20102;DHT22;10210;52.284;9.892;2022-09-24T10:50:25;19.40;99.90
20102;DHT22;10210;52.284;9.892;2022-09-24T10:56:31;19.50;99.90
20102;DHT22;10210;52.284;9.892;2022-09-24T10:59:09;19.60;99.90
20102;DHT22;10210;52.284;9.892;2022-09-24T11:02:31;19.60;99.90
20102;DHT22;10210;52.284;9.892;2022-09-24T11:05:29;19.50;99.90
20102;DHT22;10210;52.284;9.892;2022-09-24T11:20:18;19.50;99.90
20102;DHT22;10210;52.284;9.892;2022-09-24T11:23:30;19.50;99.90
20102;DHT22;10210;52.284;9.892;2022-09-24T11:29:08;19.50;99.90
20102;DHT22;10210;52.284;9.892;2022-09-24T11:37:34;19.50;99.90
20102;DHT22;10210;52.284;9.892;2022-09-24T11:46:22;19.50;99.90
20102;DHT22;10210;52.284;9.892;2022-09-24T11:52:23;19.50;99.90
20102;DHT22;10210;52.284;9.892;2022-09-24T11:55:21;19.50;99.90
20102;DHT22;10210;52.284;9.892;2022-09-24T11:58:12;19.50;99.90
20102;DHT22;10210;52.284;9.892;2022-09-24T12:00:48;19.40;99.90
20102;DHT22;10210;52.284;9.892;2022-09-24T12:07:10;19.40;99.90
20102;DHT22;10210;52.284;9.892;2022-09-24T12:09:53;19.40;99.90
20102;DHT22;10210;52.284;9.892;2022-09-24T12:12:40;19.40;99.90
20102;DHT22;10210;52.284;9.892;2022-09-24T12:15:13;19.40;99.90
20102;DHT22;10210;52.284;9.892;2022-09-24T12:18:01;19.40;99.90
20102;DHT22;10210;52.284;9.892;2022-09-24T12:20:44;19.50;99.90
20102;DHT22;10210;52.284;9.892;2022-09-24T12:23:15;19.50;99.90
20102;DHT22;10210;52.284;9.892;2022-09-24T12:25:46;19.50;99.90
20102;DHT22;10210;52.284;9.892;2022-09-24T12:28:18;19.50;99.90
20102;DHT22;10210;52.284;9.892;2022-09-24T12:31:12;19.50;99.90
20102;DHT22;10210;52.284;9.892;2022-09-24T12:34:04;19.50;99.90
20102;DHT22;10210;52.284;9.892;2022-09-24T12:36:51;19.50;99.90
20102;DHT22;10210;52.284;9.892;2022-09-24T12:39:36;19.50;99.90
20102;DHT22;10210;52.284;9.892;2022-09-24T12:42:10;19.50;99.90
20102;DHT22;10210;52.284;9.892;2022-09-24T12:44:47;19.50;99.90
20102;DHT22;10210;52.284;9.892;2022-09-24T12:47:23;19.50;99.90
20102;DHT22;10210;52.284;9.892;2022-09-24T12:49:57;19.50;99.90
20102;DHT22;10210;52.284;9.892;2022-09-24T12:55:18;19.60;99.90
20102;DHT22;10210;52.284;9.892;2022-09-24T13:03:02;19.50;99.90
20102;DHT22;10210;52.284;9.892;2022-09-24T13:10:58;19.40;99.90
20102;DHT22;10210;52.284;9.892;2022-09-24T13:13:32;19.40;99.90
20102;DHT22;10210;52.284;9.892;2022-09-24T13:16:18;19.40;99.90
20102;DHT22;10210;52.284;9.892;2022-09-24T13:18:53;19.40;99.90
20102;DHT22;10210;52.284;9.892;2022-09-24T13:21:27;19.40;99.90
20102;DHT22;10210;52.284;9.892;2022-09-24T13:23:55;19.30;99.90
20102;DHT22;10210;52.284;9.892;2022-09-24T13:26:32;19.30;99.90
20102;DHT22;10210;52.284;9.892;2022-09-24T13:29:04;19.30;99.90
20102;DHT22;10210;52.284;9.892;2022-09-24T13:31:48;19.30;99.90
20102;DHT22;10210;52.284;9.892;2022-09-24T13:34:20;19.30;99.90
20102;DHT22;10210;52.284;9.892;2022-09-24T13:37:16;19.30;99.90
20102;DHT22;10210;52.284;9.892;2022-09-24T13:40:02;19.30;99.90
20102;DHT22;10210;52.284;9.892;2022-09-24T13:42:41;19.30;99.90
20102;DHT22;10210;52.284;9.892;2022-09-24T13:45:23;19.30;99.90
20102;DHT22;10210;52.284;9.892;2022-09-24T13:48:03;19.30;99.90
20102;DHT22;10210;52.284;9.892;2022-09-24T13:50:39;19.20;99.90
20102;DHT22;10210;52.284;9.892;2022-09-24T13:53:18;19.20;99.90
20102;DHT22;10210;52.284;9.892;2022-09-24T13:55:54;19.20;99.90
20102;DHT22;10210;52.284;9.892;2022-09-24T13:58:27;19.10;99.90
20102;DHT22;10210;52.284;9.892;2022-09-24T14:01:45;19.10;99.90
20102;DHT22;10210;52.284;9.892;2022-09-24T14:04:02;19.10;99.90
20102;DHT22;10210;52.284;9.892;2022-09-24T14:06:38;19.10;99.90
20102;DHT22;10210;52.284;9.892;2022-09-24T14:09:29;19.10;99.90
20102;DHT22;10210;52.284;9.892;2022-09-24T14:12:02;19.10;99.90
20102;DHT22;10210;52.284;9.892;2022-09-24T14:14:43;19.00;99.90
20102;DHT22;10210;52.284;9.892;2022-09-24T14:17:13;19.00;99.90
20102;DHT22;10210;52.284;9.892;2022-09-24T14:19:40;19.00;99.90
20102;DHT22;10210;52.284;9.892;2022-09-24T14:22:20;19.00;99.90
20102;DHT22;10210;52.284;9.892;2022-09-24T14:25:05;19.00;99.90
20102;DHT22;10210;52.284;9.892;2022-09-24T14:27:44;19.00;99.90
20102;DHT22;10210;52.284;9.892;2022-09-24T14:30:18;18.90;99.90
20102;DHT22;10210;52.284;9.892;2022-09-24T14:32:51;18.90;99.90
20102;DHT22;10210;52.284;9.892;2022-09-24T14:35:30;18.90;99.90
20102;DHT22;10210;52.284;9.892;2022-09-24T14:38:35;18.90;99.90
20102;DHT22;10210;52.284;9.892;2022-09-24T14:41:17;18.90;99.90
20102;DHT22;10210;52.284;9.892;2022-09-24T14:44:00;18.90;99.90
20102;DHT22;10210;52.284;9.892;2022-09-24T14:46:38;18.90;99.90
20102;DHT22;10210;52.284;9.892;2022-09-24T14:49:26;18.80;99.90
20102;DHT22;10210;52.284;9.892;2022-09-24T14:54:38;18.70;99.90
20102;DHT22;10210;52.284;9.892;2022-09-24T14:59:43;18.70;99.90
20102;DHT22;10210;52.284;9.892;2022-09-24T15:02:18;18.70;99.90
20102;DHT22;10210;52.284;9.892;2022-09-24T15:04:49;18.70;99.90
20102;DHT22;10210;52.284;9.892;2022-09-24T15:07:25;18.70;99.90
20102;DHT22;10210;52.284;9.892;2022-09-24T15:09:56;18.70;99.90
20102;DHT22;10210;52.284;9.892;2022-09-24T15:12:35;18.70;99.90
20102;DHT22;10210;52.284;9.892;2022-09-24T15:15:03;18.70;99.90
20102;DHT22;10210;52.284;9.892;2022-09-24T15:17:49;18.60;99.90
20102;DHT22;10210;52.284;9.892;2022-09-24T15:20:15;18.50;99.90
20102;DHT22;10210;52.284;9.892;2022-09-24T15:22:41;18.50;99.90
20102;DHT22;10210;52.284;9.892;2022-09-24T15:25:07;18.40;99.90
20102;DHT22;10210;52.284;9.892;2022-09-24T15:27:36;18.40;99.90
20102;DHT22;10210;52.284;9.892;2022-09-24T15:30:05;18.40;99.90
20102;DHT22;10210;52.284;9.892;2022-09-24T15:32:32;18.30;99.90
20102;DHT22;10210;52.284;9.892;2022-09-24T15:35:03;18.30;99.90
20102;DHT22;10210;52.284;9.892;2022-09-24T15:37:36;18.20;99.90
20102;DHT22;10210;52.284;9.892;2022-09-24T15:40:23;18.20;99.90
20102;DHT22;10210;52.284;9.892;2022-09-24T15:42:50;18.20;99.90
20102;DHT22;10210;52.284;9.892;2022-09-24T15:45:21;18.10;99.90
20102;DHT22;10210;52.284;9.892;2022-09-24T15:47:49;18.10;99.90
20102;DHT22;10210;52.284;9.892;2022-09-24T15:50:16;18.10;99.90
20102;DHT22;10210;52.284;9.892;2022-09-24T15:55:18;18.00;99.90
20102;DHT22;10210;52.284;9.892;2022-09-24T15:57:45;18.00;99.90
20102;DHT22;10210;52.284;9.892;2022-09-24T16:00:16;18.00;99.90
20102;DHT22;10210;52.284;9.892;2022-09-24T16:02:48;17.90;99.90
20102;DHT22;10210;52.284;9.892;2022-09-24T16:05:16;17.90;99.90
20102;DHT22;10210;52.284;9.892;2022-09-24T16:07:43;17.80;99.90
20102;DHT22;10210;52.284;9.892;2022-09-24T16:10:10;17.80;99.90
20102;DHT22;10210;52.284;9.892;2022-09-24T16:12:38;17.70;99.90
20102;DHT22;10210;52.284;9.892;2022-09-24T16:15:05;17.80;99.90
20102;DHT22;10210;52.284;9.892;2022-09-24T16:17:31;17.70;99.90
20102;DHT22;10210;52.284;9.892;2022-09-24T16:19:57;17.70;99.90
20102;DHT22;10210;52.284;9.892;2022-09-24T16:22:24;17.60;99.90
20102;DHT22;10210;52.284;9.892;2022-09-24T16:24:49;17.60;99.90
20102;DHT22;10210;52.284;9.892;2022-09-24T16:27:15;17.60;99.90
20102;DHT22;10210;52.284;9.892;2022-09-24T16:29:41;17.50;99.90
20102;DHT22;10210;52.284;9.892;2022-09-24T16:32:06;17.50;99.90
20102;DHT22;10210;52.284;9.892;2022-09-24T16:34:32;17.50;99.90
20102;DHT22;10210;52.284;9.892;2022-09-24T16:36:58;17.50;99.90
20102;DHT22;10210;52.284;9.892;2022-09-24T16:39:24;17.40;99.90
20102;DHT22;10210;52.284;9.892;2022-09-24T16:41:50;17.40;99.90
20102;DHT22;10210;52.284;9.892;2022-09-24T16:44:17;17.40;99.90
20102;DHT22;10210;52.284;9.892;2022-09-24T16:46:43;17.40;99.90
20102;DHT22;10210;52.284;9.892;2022-09-24T16:49:09;17.40;99.90
20102;DHT22;10210;52.284;9.892;2022-09-24T16:51:35;17.40;99.90
20102;DHT22;10210;52.284;9.892;2022-09-24T16:54:02;17.30;99.90
20102;DHT22;10210;52.284;9.892;2022-09-24T16:56:30;17.40;99.90
20102;DHT22;10210;52.284;9.892;2022-09-24T16:58:56;17.30;99.90
20102;DHT22;10210;52.284;9.892;2022-09-24T17:01:22;17.30;99.90
20102;DHT22;10210;52.284;9.892;2022-09-24T17:03:50;17.30;99.90
20102;DHT22;10210;52.284;9.892;2022-09-24T17:06:21;17.30;99.90
20102;DHT22;10210;52.284;9.892;2022-09-24T17:08:49;17.20;99.90
20102;DHT22;10210;52.284;9.892;2022-09-24T17:11:34;17.20;99.90
20102;DHT22;10210;52.284;9.892;2022-09-24T17:14:01;17.20;99.90
20102;DHT22;10210;52.284;9.892;2022-09-24T17:16:28;17.20;99.90
20102;DHT22;10210;52.284;9.892;2022-09-24T17:18:54;17.10;99.90
20102;DHT22;10210;52.284;9.892;2022-09-24T17:21:20;17.10;99.90
20102;DHT22;10210;52.284;9.892;2022-09-24T17:23:47;17.10;99.90
20102;DHT22;10210;52.284;9.892;2022-09-24T17:26:16;17.10;99.90
20102;DHT22;10210;52.284;9.892;2022-09-24T17:28:45;17.10;99.90
20102;DHT22;10210;52.284;9.892;2022-09-24T17:31:14;17.00;99.90
20102;DHT22;10210;52.284;9.892;2022-09-24T17:33:41;17.00;99.90
20102;DHT22;10210;52.284;9.892;2022-09-24T17:36:08;17.10;99.90
20102;DHT22;10210;52.284;9.892;2022-09-24T17:38:36;17.00;99.90
20102;DHT22;10210;52.284;9.892;2022-09-24T17:41:10;17.00;99.90
20102;DHT22;10210;52.284;9.892;2022-09-24T17:43:38;17.00;99.90
20102;DHT22;10210;52.284;9.892;2022-09-24T17:46:13;17.00;99.90